createdAt,value
2023-01-18T00:01:21.670Z,0.80
2023-01-18T00:03:49.424Z,1.00
2023-01-18T00:06:18.132Z,0.60
2023-01-18T00:08:46.788Z,0.70
2023-01-18T00:11:18.487Z,0.70
2023-01-18T00:13:47.345Z,0.80
2023-01-18T00:16:18.852Z,0.70
2023-01-18T00:18:58.176Z,0.70
2023-01-18T00:21:27.602Z,0.80
2023-01-18T00:23:57.060Z,0.57
2023-01-18T00:26:25.010Z,0.80
2023-01-18T00:28:52.804Z,0.93
2023-01-18T00:31:21.751Z,1.40
2023-01-18T00:33:50.732Z,0.90
2023-01-18T00:36:19.197Z,1.10
2023-01-18T00:38:52.392Z,0.93
2023-01-18T00:41:22.039Z,1.00
2023-01-18T00:43:50.342Z,1.50
2023-01-18T00:46:20.825Z,1.40
2023-01-18T00:48:48.657Z,1.25
2023-01-18T00:51:19.655Z,1.10
2023-01-18T00:53:47.696Z,1.17
2023-01-18T00:56:21.955Z,1.10
2023-01-18T00:58:50.201Z,1.20
2023-01-18T01:01:18.140Z,1.40
2023-01-18T01:04:04.375Z,1.60
2023-01-18T01:06:46.612Z,1.48
2023-01-18T01:09:19.345Z,0.90
2023-01-18T01:12:06.670Z,0.95
2023-01-18T01:14:55.937Z,0.80
2023-01-18T01:17:42.252Z,0.70
2023-01-18T01:20:29.648Z,0.88
2023-01-18T01:23:16.025Z,0.80
2023-01-18T01:26:02.192Z,0.70
2023-01-18T01:28:30.018Z,0.57
2023-01-18T01:31:02.907Z,0.90
2023-01-18T01:33:31.648Z,0.68
2023-01-18T01:36:05.655Z,0.80
2023-01-18T01:38:33.738Z,0.80
2023-01-18T01:41:07.965Z,0.85
2023-01-18T01:43:48.510Z,0.70
2023-01-18T01:46:53.798Z,0.63
2023-01-18T01:49:28.636Z,0.60
2023-01-18T01:52:03.394Z,0.40
2023-01-18T01:54:40.315Z,0.60
2023-01-18T01:57:13.193Z,0.60
2023-01-18T01:59:50.281Z,0.50
2023-01-18T02:02:18.083Z,0.40
2023-01-18T02:04:53.854Z,0.43
2023-01-18T02:07:22.705Z,0.60
2023-01-18T02:09:51.917Z,0.55
2023-01-18T02:12:20.084Z,0.60
2023-01-18T02:14:47.880Z,0.40
2023-01-18T02:17:42.540Z,0.47
2023-01-18T02:20:34.744Z,0.60
2023-01-18T02:23:11.526Z,0.40
2023-01-18T02:26:11.783Z,0.50
2023-01-18T02:28:41.711Z,0.40
2023-01-18T02:31:22.766Z,0.38
2023-01-18T02:34:38.480Z,0.38
2023-01-18T02:37:11.387Z,0.40
2023-01-18T02:40:11.355Z,0.40
2023-01-18T02:43:00.580Z,0.40
2023-01-18T02:46:14.752Z,0.40
2023-01-18T02:48:45.228Z,0.30
2023-01-18T02:51:13.097Z,0.35
2023-01-18T02:53:44.439Z,0.40
2023-01-18T02:56:18.092Z,0.30
2023-01-18T02:58:48.937Z,0.43
2023-01-18T03:01:28.980Z,0.38
2023-01-18T03:04:11.456Z,0.43
2023-01-18T03:06:44.415Z,0.35
2023-01-18T03:09:19.621Z,0.30
2023-01-18T03:12:47.299Z,0.30
2023-01-18T03:15:27.430Z,0.30
2023-01-18T03:18:05.625Z,0.35
2023-01-18T03:20:39.573Z,0.40
2023-01-18T03:23:38.084Z,0.40
2023-01-18T03:26:18.162Z,0.30
2023-01-18T03:29:10.240Z,0.30
2023-01-18T03:32:08.770Z,0.30
2023-01-18T03:34:51.672Z,0.28
2023-01-18T03:37:41.390Z,0.30
2023-01-18T03:40:19.896Z,0.40
2023-01-18T03:42:59.586Z,0.43
2023-01-18T03:45:56.066Z,0.40
2023-01-18T03:48:24.009Z,0.50
2023-01-18T03:51:02.664Z,0.43
2023-01-18T03:53:41.521Z,0.40
2023-01-18T03:56:43.834Z,0.30
2023-01-18T03:59:11.976Z,0.30
2023-01-18T04:01:40.217Z,0.32
2023-01-18T04:04:08.223Z,0.30
2023-01-18T04:06:36.465Z,0.32
2023-01-18T04:09:04.715Z,0.20
2023-01-18T04:11:32.376Z,0.22
2023-01-18T04:14:00.032Z,0.22
2023-01-18T04:16:27.731Z,0.30
2023-01-18T04:18:55.526Z,0.30
2023-01-18T04:21:23.431Z,0.40
2023-01-18T04:23:52.201Z,0.20
2023-01-18T04:26:20.111Z,0.20
2023-01-18T04:28:47.877Z,0.43
2023-01-18T04:31:15.760Z,0.30
2023-01-18T04:33:43.429Z,0.40
2023-01-18T04:36:11.299Z,0.25
2023-01-18T04:38:39.080Z,0.20
2023-01-18T04:41:06.932Z,0.20
2023-01-18T04:43:34.808Z,0.20
2023-01-18T04:46:04.264Z,0.20
2023-01-18T04:48:32.027Z,0.20
2023-01-18T04:50:59.976Z,0.30
2023-01-18T04:53:27.859Z,0.28
2023-01-18T04:55:55.653Z,0.20
2023-01-18T04:58:23.340Z,0.20
2023-01-18T05:00:51.118Z,0.30
2023-01-18T05:03:19.095Z,0.22
2023-01-18T05:05:46.967Z,0.40
2023-01-18T05:08:14.845Z,0.30
2023-01-18T05:10:45.533Z,0.20
2023-01-18T05:13:13.417Z,0.30
2023-01-18T05:15:41.244Z,0.28
2023-01-18T05:18:08.881Z,0.20
2023-01-18T05:20:36.683Z,0.30
2023-01-18T05:23:11.274Z,0.30
2023-01-18T05:25:39.315Z,0.30
2023-01-18T05:28:08.531Z,0.30
2023-01-18T05:30:41.670Z,0.30
2023-01-18T05:33:10.224Z,0.30
2023-01-18T05:35:38.114Z,0.35
2023-01-18T05:38:05.940Z,0.30
2023-01-18T05:40:33.833Z,0.20
2023-01-18T05:43:01.660Z,0.30
2023-01-18T05:45:29.604Z,0.35
2023-01-18T05:47:57.543Z,0.20
2023-01-18T05:50:25.416Z,0.35
2023-01-18T05:52:53.225Z,0.40
2023-01-18T05:55:21.098Z,0.50
2023-01-18T05:57:48.856Z,0.40
2023-01-18T06:00:17.213Z,0.30
2023-01-18T06:02:45.082Z,0.73
2023-01-18T06:05:12.848Z,0.90
2023-01-18T06:07:42.361Z,0.90
2023-01-18T06:10:11.164Z,0.75
2023-01-18T06:12:38.985Z,1.15
2023-01-18T06:15:08.189Z,1.55
2023-01-18T06:17:37.232Z,1.92
2023-01-18T06:20:06.567Z,2.50
2023-01-18T06:22:34.217Z,2.63
2023-01-18T06:25:01.895Z,2.10
2023-01-18T06:27:29.897Z,1.92
2023-01-18T06:29:57.715Z,2.25
2023-01-18T06:32:25.872Z,2.25
2023-01-18T06:34:53.634Z,1.33
2023-01-18T06:37:21.318Z,1.83
2023-01-18T06:39:49.123Z,1.30
2023-01-18T06:42:19.732Z,1.10
2023-01-18T06:44:47.622Z,1.10
2023-01-18T06:47:20.037Z,1.60
2023-01-18T06:49:48.263Z,1.15
2023-01-18T06:52:16.841Z,1.63
2023-01-18T06:54:45.053Z,2.30
2023-01-18T06:57:12.964Z,2.55
2023-01-18T06:59:40.844Z,1.88
2023-01-18T07:02:13.443Z,1.70
2023-01-18T07:04:44.451Z,1.40
2023-01-18T07:07:13.359Z,1.70
2023-01-18T07:09:43.655Z,1.20
2023-01-18T07:12:11.714Z,1.20
2023-01-18T07:14:39.836Z,0.90
2023-01-18T07:17:09.162Z,1.17
2023-01-18T07:19:39.950Z,1.23
2023-01-18T07:22:07.865Z,1.23
2023-01-18T07:24:35.581Z,1.20
2023-01-18T07:27:04.575Z,1.00
2023-01-18T07:29:32.444Z,1.42
2023-01-18T07:32:01.317Z,1.48
2023-01-18T07:34:29.078Z,1.83
2023-01-18T07:36:56.841Z,1.10
2023-01-18T07:39:24.923Z,1.38
2023-01-18T07:41:52.696Z,1.30
2023-01-18T07:44:20.410Z,1.08
2023-01-18T07:46:48.138Z,1.10
2023-01-18T07:49:15.919Z,1.30
2023-01-18T07:51:43.828Z,1.27
2023-01-18T07:54:11.791Z,1.25
2023-01-18T07:56:40.519Z,1.17
2023-01-18T07:59:08.338Z,0.93
2023-01-18T08:01:36.296Z,1.17
2023-01-18T08:04:05.336Z,1.20
2023-01-18T08:06:34.083Z,1.55
2023-01-18T08:09:01.777Z,1.85
2023-01-18T08:11:29.591Z,1.58
2023-01-18T08:13:58.905Z,1.95
2023-01-18T08:16:27.143Z,1.60
2023-01-18T08:18:55.013Z,3.63
2023-01-18T08:21:24.350Z,7.30
2023-01-18T08:23:55.249Z,13.18
2023-01-18T08:26:23.327Z,12.02
2023-01-18T08:28:51.236Z,11.85
2023-01-18T08:31:21.602Z,12.00
2023-01-18T08:33:50.100Z,13.45
2023-01-18T08:36:20.012Z,15.00
2023-01-18T08:38:52.867Z,12.77
2023-01-18T08:41:21.658Z,9.93
2023-01-18T08:43:51.319Z,11.48
2023-01-18T08:46:19.836Z,10.80
2023-01-18T08:48:52.161Z,10.85
2023-01-18T08:51:21.985Z,8.45
2023-01-18T08:53:51.890Z,7.53
2023-01-18T08:56:20.561Z,7.35
2023-01-18T08:58:48.726Z,5.72
2023-01-18T09:01:16.886Z,6.93
2023-01-18T09:03:45.555Z,7.15
2023-01-18T09:06:13.321Z,11.00
2023-01-18T09:08:40.961Z,10.13
2023-01-18T09:11:10.686Z,10.70
2023-01-18T09:13:54.606Z,9.27
2023-01-18T09:16:27.345Z,24.85
2023-01-18T09:18:56.453Z,19.33
2023-01-18T09:21:24.772Z,25.75
2023-01-18T09:23:52.552Z,17.55
2023-01-18T09:26:21.266Z,9.98
2023-01-18T09:28:52.646Z,7.13
2023-01-18T09:31:22.475Z,5.53
2023-01-18T09:33:54.007Z,4.05
2023-01-18T09:36:26.751Z,4.03
2023-01-18T09:38:55.955Z,3.33
2023-01-18T09:41:37.870Z,2.92
2023-01-18T09:44:08.686Z,2.90
2023-01-18T09:46:42.579Z,3.45
2023-01-18T09:49:21.205Z,3.35
2023-01-18T09:51:49.110Z,3.47
2023-01-18T09:54:29.698Z,3.75
2023-01-18T09:57:08.211Z,3.05
2023-01-18T09:59:49.703Z,2.97
2023-01-18T10:02:21.507Z,2.92
2023-01-18T10:05:05.003Z,2.53
2023-01-18T10:07:35.504Z,3.80
2023-01-18T10:10:05.246Z,3.03
2023-01-18T10:12:47.115Z,3.03
2023-01-18T10:15:26.780Z,2.88
2023-01-18T10:17:58.948Z,2.47
2023-01-18T10:20:35.760Z,3.05
2023-01-18T10:23:32.111Z,2.60
2023-01-18T10:26:09.432Z,2.15
2023-01-18T10:31:40.393Z,17.90
2023-01-18T10:34:21.198Z,12.15
2023-01-18T10:36:57.381Z,8.75
2023-01-18T10:42:02.749Z,5.45
2023-01-18T10:44:31.911Z,5.80
2023-01-18T10:47:01.453Z,4.88
2023-01-18T10:49:36.895Z,3.97
2023-01-18T10:52:31.182Z,3.58
2023-01-18T10:55:01.924Z,3.78
2023-01-18T10:57:34.405Z,3.28
2023-01-18T11:00:11.369Z,3.05
2023-01-18T11:02:40.181Z,2.88
2023-01-18T11:05:31.418Z,3.20
2023-01-18T11:08:20.331Z,2.58
2023-01-18T11:11:00.316Z,2.33
2023-01-18T11:13:28.696Z,2.80
2023-01-18T11:16:03.857Z,2.40
2023-01-18T11:18:31.982Z,2.03
2023-01-18T11:20:59.887Z,2.35
2023-01-18T11:23:38.566Z,2.33
2023-01-18T11:26:20.390Z,2.17
2023-01-18T11:29:14.095Z,2.30
2023-01-18T11:31:49.103Z,2.65
2023-01-18T11:34:33.749Z,1.70
2023-01-18T11:37:03.023Z,2.00
2023-01-18T11:39:36.350Z,2.05
2023-01-18T11:42:22.701Z,2.10
2023-01-18T11:44:50.599Z,2.53
2023-01-18T11:47:46.477Z,2.35
2023-01-18T11:50:34.243Z,2.10
2023-01-18T11:53:16.634Z,2.00
2023-01-18T11:56:06.536Z,2.92
2023-01-18T11:58:36.403Z,2.22
2023-01-18T12:01:46.147Z,2.35
2023-01-18T12:04:33.475Z,1.83
2023-01-18T12:07:10.834Z,1.80
2023-01-18T12:09:48.184Z,1.30
2023-01-18T12:12:36.206Z,1.67
2023-01-18T12:18:14.330Z,1.38
2023-01-18T12:21:07.349Z,1.92
2023-01-18T12:23:40.281Z,2.67
2023-01-18T12:26:29.963Z,3.55
2023-01-18T12:29:32.306Z,2.80
2023-01-18T12:32:15.359Z,2.50
2023-01-18T12:35:24.064Z,2.85
2023-01-18T12:37:58.825Z,3.08
2023-01-18T12:40:48.952Z,3.58
2023-01-18T12:43:32.218Z,3.22
2023-01-18T12:46:09.186Z,3.50
2023-01-18T12:48:50.146Z,3.45
2023-01-18T12:51:22.639Z,3.10
2023-01-18T12:54:30.509Z,3.50
2023-01-18T12:57:04.773Z,2.90
2023-01-18T12:59:51.485Z,3.10
2023-01-18T13:02:34.860Z,6.97
2023-01-18T13:05:10.030Z,8.80
2023-01-18T13:07:42.515Z,9.25
2023-01-18T13:10:23.354Z,6.60
2023-01-18T13:12:53.705Z,5.05
2023-01-18T13:15:48.943Z,5.03
2023-01-18T13:18:21.919Z,3.92
2023-01-18T13:21:10.429Z,3.70
2023-01-18T13:23:44.349Z,3.00
2023-01-18T13:26:26.339Z,3.05
2023-01-18T13:29:22.450Z,2.72
2023-01-18T13:31:51.439Z,2.58
2023-01-18T13:34:34.020Z,2.08
2023-01-18T13:37:14.254Z,2.88
2023-01-18T13:39:47.711Z,2.00
2023-01-18T13:42:21.706Z,2.33
2023-01-18T13:45:06.272Z,3.00
2023-01-18T13:47:42.936Z,2.40
2023-01-18T13:50:29.248Z,2.22
2023-01-18T13:53:18.859Z,1.85
2023-01-18T13:55:49.209Z,1.90
2023-01-18T13:58:27.143Z,2.17
2023-01-18T14:00:58.657Z,2.30
2023-01-18T14:03:43.760Z,2.80
2023-01-18T14:06:25.706Z,2.70
2023-01-18T14:09:07.749Z,3.05
2023-01-18T14:11:42.516Z,2.70
2023-01-18T14:14:17.632Z,2.25
2023-01-18T14:17:08.869Z,2.60
2023-01-18T14:20:04.209Z,2.00
2023-01-18T14:22:56.889Z,1.75
2023-01-18T14:25:53.878Z,1.90
2023-01-18T14:28:34.848Z,1.92
2023-01-18T14:31:06.473Z,1.70
2023-01-18T14:33:38.300Z,1.63
2023-01-18T14:36:08.672Z,1.90
2023-01-18T14:38:37.253Z,1.55
2023-01-18T14:41:10.320Z,1.67
2023-01-18T14:43:45.016Z,3.85
2023-01-18T14:46:17.020Z,4.80
2023-01-18T14:48:57.471Z,4.47
2023-01-18T14:51:28.388Z,3.58
2023-01-18T14:54:00.899Z,2.85
2023-01-18T14:56:32.012Z,2.30
2023-01-18T14:59:03.489Z,1.75
2023-01-18T15:01:39.716Z,2.10
2023-01-18T15:04:21.498Z,1.63
2023-01-18T15:06:52.651Z,1.77
2023-01-18T15:09:22.492Z,1.35
2023-01-18T15:11:53.670Z,1.52
2023-01-18T15:14:34.880Z,1.40
2023-01-18T15:17:08.883Z,1.17
2023-01-18T15:19:46.447Z,1.63
2023-01-18T15:22:17.157Z,1.00
2023-01-18T15:24:46.499Z,1.60
2023-01-18T15:27:19.727Z,1.48
2023-01-18T15:30:14.217Z,0.90
2023-01-18T15:32:42.448Z,0.93
2023-01-18T15:35:14.800Z,1.10
2023-01-18T15:37:42.643Z,1.00
2023-01-18T15:40:13.290Z,1.25
2023-01-18T15:42:59.516Z,0.90
2023-01-18T15:45:33.214Z,0.93
2023-01-18T15:48:10.790Z,0.98
2023-01-18T15:50:49.774Z,1.20
2023-01-18T15:53:33.252Z,1.40
2023-01-18T15:56:15.623Z,1.60
2023-01-18T15:58:46.214Z,1.80
2023-01-18T16:01:14.065Z,1.50
2023-01-18T16:04:20.091Z,1.65
2023-01-18T16:06:48.107Z,1.50
2023-01-18T16:09:16.487Z,1.40
2023-01-18T16:11:54.108Z,1.60
2023-01-18T16:14:28.140Z,1.50
2023-01-18T16:17:11.210Z,1.20
2023-01-18T16:19:44.524Z,1.50
2023-01-18T16:22:27.512Z,1.10
2023-01-18T16:25:15.223Z,1.13
2023-01-18T16:27:48.786Z,1.20
2023-01-18T16:30:21.484Z,1.50
2023-01-18T16:32:49.809Z,2.40
2023-01-18T16:35:23.041Z,13.98
2023-01-18T16:37:52.119Z,31.83
2023-01-18T16:40:22.588Z,22.25
2023-01-18T16:43:02.157Z,12.68
2023-01-18T16:45:33.871Z,10.02
2023-01-18T16:48:02.362Z,7.85
2023-01-18T16:50:31.504Z,5.03
2023-01-18T16:52:59.522Z,3.10
2023-01-18T16:55:27.289Z,2.97
2023-01-18T16:57:55.152Z,2.60
2023-01-18T17:00:28.413Z,2.30
2023-01-18T17:02:56.682Z,2.28
2023-01-18T17:05:24.468Z,1.90
2023-01-18T17:07:52.800Z,1.92
2023-01-18T17:10:39.051Z,2.00
2023-01-18T17:15:36.415Z,1.75
2023-01-18T17:18:05.022Z,2.05
2023-01-18T17:20:32.913Z,1.70
2023-01-18T17:23:02.283Z,1.65
2023-01-18T17:25:30.403Z,1.75
2023-01-18T17:27:58.600Z,2.08
2023-01-18T17:30:29.694Z,2.10
2023-01-18T17:32:59.547Z,2.33
2023-01-18T17:35:31.153Z,1.98
2023-01-18T17:38:05.470Z,1.70
2023-01-18T17:40:43.813Z,1.92
2023-01-18T17:43:17.044Z,1.85
2023-01-18T17:45:59.143Z,1.98
2023-01-18T17:48:29.130Z,1.70
2023-01-18T17:50:56.970Z,1.88
2023-01-18T17:53:26.195Z,1.80
2023-01-18T17:55:54.258Z,1.70
2023-01-18T17:58:21.990Z,2.13
2023-01-18T18:00:49.847Z,1.70
2023-01-18T18:03:20.579Z,1.88
2023-01-18T18:05:48.452Z,1.58
2023-01-18T18:08:19.077Z,1.58
2023-01-18T18:10:48.338Z,1.85
2023-01-18T18:13:16.457Z,1.70
2023-01-18T18:15:52.253Z,1.50
2023-01-18T18:18:23.833Z,1.40
2023-01-18T18:21:04.153Z,1.70
2023-01-18T18:23:32.067Z,1.90
2023-01-18T18:26:00.652Z,2.60
2023-01-18T18:28:29.889Z,1.73
2023-01-18T18:30:58.723Z,1.15
2023-01-18T18:33:28.140Z,1.30
2023-01-18T18:35:56.619Z,1.35
2023-01-18T18:38:26.798Z,1.60
2023-01-18T18:40:55.119Z,1.60
2023-01-18T18:43:24.708Z,1.63
2023-01-18T18:45:54.643Z,1.60
2023-01-18T18:48:25.409Z,2.03
2023-01-18T18:50:54.171Z,2.00
2023-01-18T18:53:29.573Z,1.92
2023-01-18T18:56:12.270Z,1.50
2023-01-18T18:58:40.862Z,1.45
2023-01-18T19:01:20.311Z,1.77
2023-01-18T19:03:49.477Z,1.60
2023-01-18T19:06:18.989Z,1.70
2023-01-18T19:08:47.385Z,1.40
2023-01-18T19:11:16.091Z,1.65
2023-01-18T19:13:44.964Z,1.50
2023-01-18T19:16:13.612Z,1.63
2023-01-18T19:18:41.743Z,1.52
2023-01-18T19:21:09.500Z,1.50
2023-01-18T19:23:38.620Z,1.85
2023-01-18T19:26:06.645Z,2.00
2023-01-18T19:28:34.495Z,2.13
2023-01-18T19:31:07.177Z,1.83
2023-01-18T19:33:35.668Z,2.10
2023-01-18T19:36:09.660Z,2.72
2023-01-18T19:38:57.686Z,2.40
2023-01-18T19:41:30.306Z,2.50
2023-01-18T19:43:58.070Z,2.53
2023-01-18T19:46:25.904Z,3.00
2023-01-18T19:48:58.406Z,3.00
2023-01-18T19:51:27.389Z,2.83
2023-01-18T19:53:58.104Z,2.90
2023-01-18T19:56:29.270Z,3.40
2023-01-18T19:58:57.786Z,3.33
2023-01-18T20:01:36.524Z,3.42
2023-01-18T20:04:08.115Z,3.35
2023-01-18T20:06:39.901Z,2.60
2023-01-18T20:09:18.581Z,2.67
2023-01-18T20:11:47.449Z,2.95
2023-01-18T20:14:15.648Z,2.72
2023-01-18T20:16:45.875Z,2.83
2023-01-18T20:19:15.952Z,2.55
2023-01-18T20:21:44.097Z,2.38
2023-01-18T20:24:15.362Z,2.15
2023-01-18T20:26:43.742Z,2.20
2023-01-18T20:29:11.545Z,1.77
2023-01-18T20:31:43.059Z,1.95
2023-01-18T20:34:12.685Z,2.60
2023-01-18T20:36:40.473Z,2.38
2023-01-18T20:39:12.211Z,1.98
2023-01-18T20:41:40.326Z,1.40
2023-01-18T20:44:08.828Z,1.52
2023-01-18T20:46:36.967Z,1.58
2023-01-18T20:49:05.332Z,5.20
2023-01-18T20:51:34.020Z,8.32
2023-01-18T20:54:02.470Z,10.23
2023-01-18T20:56:32.217Z,9.60
2023-01-18T20:59:00.513Z,9.27
2023-01-18T21:01:34.443Z,6.97
2023-01-18T21:04:03.967Z,6.18
2023-01-18T21:06:32.543Z,5.43
2023-01-18T21:09:01.876Z,4.65
2023-01-18T21:11:30.046Z,4.05
2023-01-18T21:13:59.500Z,3.60
2023-01-18T21:16:28.125Z,2.40
2023-01-18T21:18:57.249Z,2.40
2023-01-18T21:21:26.908Z,1.90
2023-01-18T21:23:54.789Z,2.25
2023-01-18T21:26:24.532Z,2.70
2023-01-18T21:28:54.323Z,3.55
2023-01-18T21:31:23.936Z,4.30
2023-01-18T21:33:53.059Z,9.95
2023-01-18T21:36:23.036Z,6.57
2023-01-18T21:38:51.505Z,5.13
2023-01-18T21:41:38.638Z,4.45
2023-01-18T21:44:27.197Z,2.78
2023-01-18T21:46:56.622Z,2.83
2023-01-18T21:50:15.686Z,2.30
2023-01-18T21:52:52.664Z,2.22
2023-01-18T21:58:08.104Z,1.85
2023-01-18T22:00:40.628Z,1.95
2023-01-18T22:03:09.989Z,1.88
2023-01-18T22:05:40.709Z,2.20
2023-01-18T22:08:10.081Z,1.80
2023-01-18T22:10:38.891Z,1.95
2023-01-18T22:13:06.802Z,1.15
2023-01-18T22:15:39.150Z,1.50
2023-01-18T22:18:07.001Z,1.83
2023-01-18T22:20:36.342Z,1.52
2023-01-18T22:23:06.714Z,2.33
2023-01-18T22:25:34.615Z,1.90
2023-01-18T22:28:02.782Z,2.42
2023-01-18T22:30:30.987Z,1.88
2023-01-18T22:32:59.204Z,1.70
2023-01-18T22:35:27.315Z,1.95
2023-01-18T22:37:56.508Z,1.98
2023-01-18T22:40:26.832Z,2.22
2023-01-18T22:42:57.075Z,2.28
2023-01-18T22:45:26.379Z,2.00
2023-01-18T22:47:54.134Z,2.10
2023-01-18T22:50:25.342Z,2.50
2023-01-18T22:52:53.165Z,2.50
2023-01-18T22:55:20.886Z,2.38
2023-01-18T22:57:48.914Z,1.80
2023-01-18T23:00:17.389Z,2.85
2023-01-18T23:02:45.144Z,2.20
2023-01-18T23:05:12.928Z,2.50
2023-01-18T23:07:40.693Z,2.33
2023-01-18T23:10:09.196Z,2.42
2023-01-18T23:12:37.956Z,2.08
2023-01-18T23:15:24.709Z,2.50
2023-01-18T23:17:52.547Z,1.60
2023-01-18T23:20:23.724Z,1.70
2023-01-18T23:22:51.739Z,1.40
2023-01-18T23:25:19.753Z,2.05
2023-01-18T23:27:47.736Z,2.00
2023-01-18T23:30:16.101Z,2.47
2023-01-18T23:32:43.842Z,2.10
2023-01-18T23:35:11.641Z,1.55
2023-01-18T23:37:39.425Z,1.40
2023-01-18T23:40:27.299Z,1.17
2023-01-18T23:43:13.876Z,1.20
2023-01-18T23:46:02.731Z,1.25
2023-01-18T23:48:49.101Z,1.42
2023-01-18T23:51:35.361Z,1.40
2023-01-18T23:54:16.008Z,1.00
2023-01-18T23:56:48.229Z,1.20
2023-01-18T23:59:16.270Z,1.20
